Time;durP1;ratioP1;P1;durP2;ratioP2;P2;SDS_P1;SDS_P2;PMS_P1;PMS_P2;Temp;Humidity;BMP_temperature;BMP_pressure;BME280_temperature;BME280_humidity;BME280_pressure;Samples;Min_cycle;Max_cycle;Signal;HPM_P1;HPM_P2
2022/09/17 00:01:41;;;;;;;2.63;0.90;;;10.00;99.90;;;;;;5052726;28;20191;-69
2022/09/17 00:04:10;;;;;;;1.90;0.93;;;10.00;99.90;;;;;;5052743;28;20216;-68
2022/09/17 00:06:39;;;;;;;1.77;0.97;;;10.00;99.90;;;;;;5052976;28;20207;-67
2022/09/17 00:09:08;;;;;;;1.33;0.83;;;9.90;99.90;;;;;;5052698;28;20187;-68
2022/09/17 00:11:40;;;;;;;2.80;0.90;;;9.90;99.90;;;;;;5052628;28;20192;-68
2022/09/17 00:14:13;;;;;;;2.63;1.00;;;10.00;99.90;;;;;;5053094;28;20235;-68
2022/09/17 00:16:44;;;;;;;2.03;1.07;;;10.00;99.90;;;;;;5052637;28;20188;-68
2022/09/17 00:19:16;;;;;;;5.93;1.00;;;10.00;99.90;;;;;;5053150;28;20188;-69
2022/09/17 00:21:44;;;;;;;1.43;1.00;;;10.00;99.90;;;;;;5052678;28;20195;-69
2022/09/17 00:24:15;;;;;;;1.77;1.00;;;10.10;99.90;;;;;;5052540;28;20712;-68
2022/09/17 00:26:45;;;;;;;2.53;1.20;;;10.00;99.90;;;;;;5051625;28;20209;-68
2022/09/17 00:29:14;;;;;;;5.03;1.10;;;10.00;99.90;;;;;;5055982;28;20188;-68
2022/09/17 00:31:43;;;;;;;1.53;0.97;;;10.00;99.90;;;;;;5055247;28;20210;-68
2022/09/17 00:34:12;;;;;;;2.00;1.37;;;10.00;99.90;;;;;;5056531;28;20690;-67
2022/09/17 00:36:41;;;;;;;2.30;1.00;;;10.10;99.90;;;;;;5056523;28;20191;-68
2022/09/17 00:39:14;;;;;;;3.93;0.80;;;10.10;99.90;;;;;;5056387;28;20198;-69
2022/09/17 00:41:45;;;;;;;3.03;1.40;;;10.10;99.90;;;;;;5057032;28;20191;-68
2022/09/17 00:44:40;;;;;;;3.63;1.07;;;10.10;99.90;;;;;;5055817;28;20227;-68
2022/09/17 00:47:15;;;;;;;2.77;1.23;;;10.10;99.90;;;;;;5056705;28;20184;-68
2022/09/17 00:49:44;;;;;;;4.13;1.70;;;10.20;99.90;;;;;;5056253;28;20184;-67
2022/09/17 00:52:16;;;;;;;2.07;1.40;;;10.10;99.90;;;;;;5056159;28;20222;-68
2022/09/17 00:54:52;;;;;;;4.40;1.67;;;10.10;99.90;;;;;;5056161;28;20208;-68
2022/09/17 00:57:22;;;;;;;3.87;2.00;;;10.10;99.90;;;;;;5056092;28;20188;-69
2022/09/17 00:59:51;;;;;;;4.03;1.90;;;10.10;99.90;;;;;;5057082;28;20619;-69
2022/09/17 01:02:20;;;;;;;6.53;2.37;;;10.10;99.90;;;;;;5055924;28;20203;-68
2022/09/17 01:04:50;;;;;;;5.23;2.30;;;10.10;99.90;;;;;;5056381;28;20219;-67
2022/09/17 01:07:43;;;;;;;4.03;2.13;;;10.10;99.90;;;;;;5056174;28;20666;-69
2022/09/17 01:10:27;;;;;;;6.07;2.47;;;10.10;99.90;;;;;;5056377;28;20624;-69
2022/09/17 01:13:09;;;;;;;5.80;2.53;;;10.20;99.90;;;;;;5056534;28;20215;-68
2022/09/17 01:15:46;;;;;;;4.90;2.40;;;10.20;99.90;;;;;;5055831;28;20188;-68
2022/09/17 01:18:24;;;;;;;7.00;2.47;;;10.20;99.90;;;;;;5056529;28;20184;-68
2022/09/17 01:21:29;;;;;;;6.23;2.80;;;10.10;99.90;;;;;;5055665;28;20191;-68
2022/09/17 01:24:28;;;;;;;6.63;2.70;;;10.20;99.90;;;;;;5055753;28;20211;-68
2022/09/17 01:27:29;;;;;;;5.27;2.60;;;10.10;99.90;;;;;;5051865;28;20218;-67
2022/09/17 01:30:28;;;;;;;4.43;2.40;;;10.00;99.90;;;;;;5055275;28;20608;-68
2022/09/17 01:33:03;;;;;;;6.37;2.73;;;10.00;99.90;;;;;;5050514;28;20226;-69
2022/09/17 01:35:38;;;;;;;5.13;2.60;;;9.90;99.90;;;;;;5054902;28;20223;-69
2022/09/17 01:38:13;;;;;;;3.13;2.30;;;9.90;99.90;;;;;;5055666;28;20199;-68
2022/09/17 01:40:50;;;;;;;7.77;2.20;;;9.90;99.90;;;;;;5054606;28;20237;-69
2022/09/17 01:43:25;;;;;;;4.00;1.93;;;9.80;99.90;;;;;;5054686;28;20211;-68
2022/09/17 01:45:59;;;;;;;5.43;2.53;;;9.80;99.90;;;;;;5054859;28;20199;-67
2022/09/17 01:48:32;;;;;;;6.50;2.90;;;9.80;99.90;;;;;;5054662;28;20199;-67
2022/09/17 01:51:06;;;;;;;6.17;2.50;;;9.80;99.90;;;;;;5054718;28;20227;-66
2022/09/17 01:53:41;;;;;;;4.67;2.40;;;9.80;99.90;;;;;;5054923;28;20593;-67
2022/09/17 01:56:13;;;;;;;8.13;2.47;;;9.70;99.90;;;;;;5054565;28;20199;-68
2022/09/17 01:59:12;;;;;;;7.97;2.97;;;9.70;99.90;;;;;;5054688;28;20218;-67
2022/09/17 02:01:43;;;;;;;6.03;2.43;;;9.60;99.90;;;;;;5055181;28;20214;-68
2022/09/17 02:04:18;;;;;;;5.60;2.50;;;9.60;99.90;;;;;;5054586;28;20230;-68
2022/09/17 02:06:53;;;;;;;4.07;2.50;;;9.60;99.90;;;;;;5054471;28;20204;-69
2022/09/17 02:09:26;;;;;;;4.43;2.53;;;9.60;99.90;;;;;;5054375;28;20199;-68
2022/09/17 02:12:00;;;;;;;4.93;2.90;;;9.60;99.90;;;;;;5054431;28;20215;-68
2022/09/17 02:14:34;;;;;;;5.40;2.70;;;9.50;99.90;;;;;;5053239;28;20232;-67
2022/09/17 02:17:09;;;;;;;6.53;2.97;;;9.60;99.90;;;;;;5054217;28;20196;-68
2022/09/17 02:19:41;;;;;;;7.03;2.87;;;9.60;99.90;;;;;;5054238;28;20195;-67
2022/09/17 02:22:21;;;;;;;7.83;2.93;;;9.50;99.90;;;;;;5054835;28;20206;-67
2022/09/17 02:24:58;;;;;;;7.07;3.10;;;9.50;99.90;;;;;;5053969;28;20232;-67
2022/09/17 02:27:37;;;;;;;6.53;3.00;;;9.50;99.90;;;;;;5053928;28;20215;-68
2022/09/17 02:30:06;;;;;;;8.80;3.80;;;9.50;99.90;;;;;;5054288;28;20210;-68
2022/09/17 02:32:35;;;;;;;6.53;3.20;;;9.50;99.90;;;;;;5054265;28;20200;-67
2022/09/17 02:35:06;;;;;;;9.47;3.67;;;9.50;99.90;;;;;;5054200;28;20250;-68
2022/09/17 02:37:35;;;;;;;6.83;2.80;;;9.60;99.90;;;;;;5054000;28;20207;-68
2022/09/17 02:40:05;;;;;;;8.00;3.17;;;9.60;99.90;;;;;;5054069;28;20593;-67
2022/09/17 02:42:50;;;;;;;5.53;2.90;;;9.70;99.90;;;;;;5053996;28;20203;-67
2022/09/17 02:45:29;;;;;;;6.53;3.00;;;9.70;99.90;;;;;;5053635;28;20228;-68
2022/09/17 02:48:19;;;;;;;4.63;2.40;;;9.70;99.90;;;;;;5053864;28;20210;-68
2022/09/17 02:51:12;;;;;;;7.07;2.80;;;9.70;99.90;;;;;;5053019;28;20208;-68
2022/09/17 02:53:49;;;;;;;9.03;2.57;;;9.70;99.90;;;;;;5053357;28;20266;-67
2022/09/17 02:56:25;;;;;;;6.53;2.40;;;9.70;99.90;;;;;;5053788;28;20206;-67
2022/09/17 02:59:00;;;;;;;6.90;2.70;;;9.70;99.90;;;;;;5053655;28;20561;-67
2022/09/17 03:01:34;;;;;;;7.67;2.97;;;9.80;99.90;;;;;;5054184;28;20210;-67
2022/09/17 03:04:05;;;;;;;8.43;2.47;;;9.80;99.90;;;;;;5053166;28;20223;-68
2022/09/17 03:06:37;;;;;;;9.47;2.63;;;9.80;99.90;;;;;;5053808;28;20655;-67
2022/09/17 03:09:05;;;;;;;6.03;2.33;;;9.70;99.90;;;;;;5053246;28;20208;-68
2022/09/17 03:11:34;;;;;;;4.80;1.90;;;9.70;99.90;;;;;;5053099;28;20192;-69
2022/09/17 03:14:03;;;;;;;7.40;2.43;;;9.70;99.90;;;;;;5052916;28;20236;-68
2022/09/17 03:16:32;;;;;;;6.50;2.30;;;9.80;99.90;;;;;;5052988;28;20199;-68
2022/09/17 03:19:01;;;;;;;4.70;2.27;;;9.80;99.90;;;;;;5053346;28;20207;-68
2022/09/17 03:21:30;;;;;;;7.73;2.60;;;9.80;99.90;;;;;;5053275;28;20195;-67
2022/09/17 03:24:00;;;;;;;7.10;2.17;;;9.80;99.90;;;;;;5052853;28;20707;-68
2022/09/17 03:26:28;;;;;;;4.07;2.13;;;9.80;99.90;;;;;;5053008;28;20582;-68
2022/09/17 03:28:57;;;;;;;4.67;2.17;;;9.80;99.90;;;;;;5053075;28;20196;-67
2022/09/17 03:31:26;;;;;;;7.33;2.67;;;9.70;99.90;;;;;;5052799;28;20210;-68
2022/09/17 03:33:55;;;;;;;8.20;2.60;;;9.70;99.90;;;;;;5052958;28;20223;-68
2022/09/17 03:36:24;;;;;;;5.93;2.23;;;9.60;99.90;;;;;;5052942;28;20199;-68
2022/09/17 03:38:54;;;;;;;6.60;2.43;;;9.60;99.90;;;;;;5052870;28;20210;-68
2022/09/17 03:41:25;;;;;;;7.23;2.30;;;9.60;99.90;;;;;;5052868;28;20203;-67
2022/09/17 03:43:53;;;;;;;6.50;2.67;;;9.70;99.90;;;;;;5052524;28;20219;-68
2022/09/17 03:46:22;;;;;;;5.70;2.60;;;9.70;99.90;;;;;;5052960;28;20200;-68
2022/09/17 03:48:51;;;;;;;7.97;2.20;;;9.70;99.90;;;;;;5052594;28;20656;-68
2022/09/17 03:51:19;;;;;;;6.53;2.37;;;9.70;99.90;;;;;;5053011;28;20636;-68
2022/09/17 03:53:48;;;;;;;6.50;2.20;;;9.70;99.90;;;;;;5052320;28;20219;-68
2022/09/17 03:56:17;;;;;;;7.53;2.40;;;9.60;99.90;;;;;;5053443;28;20565;-70
2022/09/17 03:58:47;;;;;;;5.27;1.97;;;9.70;99.90;;;;;;5052800;28;20188;-70
2022/09/17 04:01:16;;;;;;;9.23;2.27;;;9.60;99.90;;;;;;5052771;28;20195;-68
2022/09/17 04:03:45;;;;;;;5.87;2.10;;;9.60;99.90;;;;;;5052491;28;20204;-69
2022/09/17 04:06:13;;;;;;;7.67;2.10;;;9.60;99.90;;;;;;5053015;28;20191;-68
2022/09/17 04:08:42;;;;;;;8.70;2.23;;;9.60;99.90;;;;;;5052764;28;20206;-68
2022/09/17 04:11:15;;;;;;;6.50;2.07;;;9.60;99.90;;;;;;5053913;28;20184;-69
2022/09/17 04:13:43;;;;;;;10.23;2.40;;;9.60;99.90;;;;;;5053163;28;20216;-68
2022/09/17 04:16:14;;;;;;;5.07;1.90;;;9.60;99.90;;;;;;5052781;28;20590;-67
2022/09/17 04:18:42;;;;;;;7.80;2.20;;;9.60;99.90;;;;;;5053622;28;20196;-68
2022/09/17 04:21:11;;;;;;;6.13;2.20;;;9.60;99.90;;;;;;5052766;28;20199;-68
2022/09/17 04:23:39;;;;;;;5.20;1.90;;;9.60;99.90;;;;;;5053367;28;20208;-68
2022/09/17 04:26:09;;;;;;;7.43;2.20;;;9.60;99.90;;;;;;5052409;28;20219;-68
2022/09/17 04:28:38;;;;;;;4.47;1.97;;;9.60;99.90;;;;;;5052658;28;20184;-68
2022/09/17 04:31:07;;;;;;;5.60;1.70;;;9.60;99.90;;;;;;5052614;28;20659;-69
2022/09/17 04:33:37;;;;;;;6.40;1.63;;;9.60;99.90;;;;;;5053149;28;20219;-68
2022/09/17 04:36:09;;;;;;;5.23;1.60;;;9.60;99.90;;;;;;5052695;28;20589;-69
2022/09/17 04:38:38;;;;;;;5.37;1.77;;;9.50;99.90;;;;;;5051523;28;20207;-69
2022/09/17 04:41:07;;;;;;;8.43;2.40;;;9.50;99.90;;;;;;5051974;28;20204;-69
2022/09/17 04:43:36;;;;;;;8.13;2.10;;;9.60;99.90;;;;;;5052399;28;20702;-68
2022/09/17 04:46:04;;;;;;;8.90;1.90;;;9.50;99.90;;;;;;5052296;28;20196;-68
2022/09/17 04:48:33;;;;;;;6.93;2.13;;;9.50;99.90;;;;;;5052351;28;20196;-68
2022/09/17 04:51:03;;;;;;;5.07;1.70;;;9.50;99.90;;;;;;5051466;28;20659;-68
2022/09/17 04:53:32;;;;;;;4.10;1.87;;;9.50;99.90;;;;;;5052860;28;20212;-68
2022/09/17 04:56:01;;;;;;;8.50;2.20;;;9.50;99.90;;;;;;5052026;28;20234;-70
2022/09/17 04:58:31;;;;;;;4.73;2.20;;;9.50;99.90;;;;;;5052482;28;20562;-67
2022/09/17 05:01:00;;;;;;;8.40;2.37;;;9.50;99.90;;;;;;5053229;28;20635;-69
2022/09/17 05:03:29;;;;;;;5.00;2.00;;;9.50;99.90;;;;;;5052162;28;20200;-69
2022/09/17 05:05:57;;;;;;;5.30;2.07;;;9.60;99.90;;;;;;5052144;28;20566;-69
2022/09/17 05:08:27;;;;;;;6.47;1.90;;;9.60;99.90;;;;;;5052960;28;20192;-68
2022/09/17 05:10:57;;;;;;;4.93;2.03;;;9.60;99.90;;;;;;5052423;28;20211;-67
2022/09/17 05:13:25;;;;;;;6.70;1.90;;;9.60;99.90;;;;;;5052109;28;20215;-68
2022/09/17 05:15:55;;;;;;;7.17;2.50;;;9.60;99.90;;;;;;5055547;28;20219;-67
2022/09/17 05:18:24;;;;;;;8.00;2.50;;;9.60;99.90;;;;;;5055870;28;20682;-67
2022/09/17 05:20:53;;;;;;;6.63;2.70;;;9.60;99.90;;;;;;5055960;28;20199;-68
2022/09/17 05:23:22;;;;;;;5.13;2.47;;;9.70;99.90;;;;;;5056411;28;20526;-58
2022/09/17 05:25:52;;;;;;;7.53;2.20;;;9.70;99.90;;;;;;5055484;28;20203;-68
2022/09/17 05:28:21;;;;;;;5.30;1.93;;;9.90;99.90;;;;;;5055781;28;20183;-67
2022/09/17 05:30:50;;;;;;;8.70;2.60;;;9.90;99.90;;;;;;5055502;28;20648;-69
2022/09/17 05:33:19;;;;;;;6.57;2.07;;;9.80;99.90;;;;;;5055352;28;20203;-68
2022/09/17 05:35:47;;;;;;;6.83;1.80;;;9.80;99.90;;;;;;5055856;28;20216;-68
2022/09/17 05:38:17;;;;;;;5.17;2.10;;;9.60;99.90;;;;;;5054937;28;20211;-69
2022/09/17 05:40:47;;;;;;;4.57;1.80;;;9.50;99.90;;;;;;5055308;28;20196;-69
2022/09/17 05:43:17;;;;;;;6.90;2.00;;;9.40;99.90;;;;;;5055657;28;20195;-69
2022/09/17 05:45:47;;;;;;;3.90;1.90;;;9.30;99.90;;;;;;5055975;28;20196;-67
2022/09/17 05:48:16;;;;;;;5.77;2.70;;;9.30;99.90;;;;;;5055642;28;20192;-67
2022/09/17 05:50:44;;;;;;;6.23;2.43;;;9.20;99.90;;;;;;5055849;28;20196;-67
2022/09/17 05:53:13;;;;;;;5.90;2.70;;;9.10;99.90;;;;;;5055555;28;20195;-68
2022/09/17 05:55:42;;;;;;;7.90;2.20;;;9.10;99.90;;;;;;5055103;28;20242;-67
2022/09/17 05:58:12;;;;;;;4.23;2.03;;;9.00;99.90;;;;;;5055048;28;20187;-67
2022/09/17 06:00:44;;;;;;;6.73;2.13;;;9.00;99.90;;;;;;5055136;28;20579;-67
2022/09/17 06:03:14;;;;;;;5.73;2.17;;;8.90;99.90;;;;;;5055359;28;20192;-66
2022/09/17 06:05:44;;;;;;;3.03;1.70;;;8.80;99.90;;;;;;5055701;28;20199;-66
2022/09/17 06:08:12;;;;;;;2.97;1.70;;;8.70;99.90;;;;;;5054830;28;20195;-66
2022/09/17 06:10:41;;;;;;;4.30;1.63;;;8.60;99.90;;;;;;5055304;28;20203;-66
2022/09/17 06:13:10;;;;;;;4.47;1.80;;;8.60;99.90;;;;;;5054755;28;20200;-66
2022/09/17 06:15:38;;;;;;;3.97;1.53;;;8.60;99.90;;;;;;5054751;28;20191;-67
2022/09/17 06:18:08;;;;;;;2.83;1.33;;;8.60;99.90;;;;;;5054686;28;20204;-67
2022/09/17 06:20:37;;;;;;;1.73;1.30;;;8.60;99.90;;;;;;5055067;28;20636;-67
2022/09/17 06:23:05;;;;;;;3.10;1.40;;;8.50;99.90;;;;;;5054740;28;20214;-66
2022/09/17 06:25:34;;;;;;;3.90;1.50;;;8.50;99.90;;;;;;5053150;28;20702;-66
2022/09/17 06:28:03;;;;;;;4.93;1.27;;;8.50;99.90;;;;;;5054400;28;20222;-67
2022/09/17 06:30:32;;;;;;;2.27;1.20;;;8.50;99.90;;;;;;5054778;28;20206;-67
2022/09/17 06:33:01;;;;;;;3.50;1.30;;;8.50;99.90;;;;;;5054469;28;20192;-66
2022/09/17 06:35:31;;;;;;;1.90;1.50;;;8.50;99.90;;;;;;5053278;28;20573;-68
2022/09/17 06:38:00;;;;;;;2.77;1.37;;;8.40;99.90;;;;;;5054281;28;20234;-67
2022/09/17 06:40:33;;;;;;;2.60;1.37;;;8.40;99.90;;;;;;5055081;28;20184;-71
2022/09/17 06:43:02;;;;;;;3.27;1.50;;;8.40;99.90;;;;;;5054744;28;20200;-66
2022/09/17 06:45:31;;;;;;;3.47;1.40;;;8.50;99.90;;;;;;5054107;28;20208;-67
2022/09/17 06:48:04;;;;;;;2.27;1.20;;;8.50;99.90;;;;;;5054885;28;20246;-67
2022/09/17 06:50:34;;;;;;;1.50;1.17;;;8.50;99.90;;;;;;5054514;28;20184;-70
2022/09/17 06:53:09;;;;;;;1.93;1.20;;;8.50;99.90;;;;;;5054541;28;20199;-66
2022/09/17 06:55:38;;;;;;;2.43;1.40;;;8.50;99.90;;;;;;5053866;28;20200;-65
2022/09/17 06:58:07;;;;;;;2.90;1.80;;;8.50;99.90;;;;;;5054535;28;20223;-66
2022/09/17 07:00:35;;;;;;;1.87;1.37;;;8.60;99.90;;;;;;5054152;28;20582;-67
2022/09/17 07:03:04;;;;;;;4.70;2.00;;;8.60;99.90;;;;;;5054151;28;20199;-69
2022/09/17 07:05:34;;;;;;;3.57;1.43;;;8.50;99.90;;;;;;5053478;28;20219;-69
2022/09/17 07:08:04;;;;;;;2.90;1.67;;;8.50;99.90;;;;;;5054072;28;20208;-68
2022/09/17 07:10:32;;;;;;;5.50;2.00;;;8.50;99.90;;;;;;5038355;28;20203;-67
2022/09/17 07:13:01;;;;;;;3.97;2.00;;;8.60;99.90;;;;;;5035597;28;20200;-66
2022/09/17 07:15:29;;;;;;;2.87;1.90;;;8.50;99.90;;;;;;5031182;28;20220;-68
2022/09/17 07:17:58;;;;;;;4.97;1.90;;;8.60;99.90;;;;;;5030945;28;20220;-66
2022/09/17 07:20:27;;;;;;;3.93;2.03;;;8.50;99.90;;;;;;5031273;28;20204;-68
2022/09/17 07:22:58;;;;;;;4.90;1.97;;;8.50;99.90;;;;;;5031401;28;20201;-70
2022/09/17 07:25:27;;;;;;;4.10;1.70;;;8.60;99.90;;;;;;5030966;28;20220;-65
2022/09/17 07:27:55;;;;;;;3.47;2.10;;;8.60;99.90;;;;;;5031294;28;20215;-66
2022/09/17 07:30:24;;;;;;;3.03;1.70;;;8.60;99.90;;;;;;5032442;28;20207;-67
2022/09/17 07:32:53;;;;;;;4.93;1.70;;;8.60;99.90;;;;;;5032985;28;20196;-67
2022/09/17 07:35:21;;;;;;;6.13;2.07;;;8.60;99.90;;;;;;5032936;28;20588;-66
2022/09/17 07:37:50;;;;;;;4.27;2.30;;;8.60;99.90;;;;;;5032261;28;20613;-68
2022/09/17 07:40:20;;;;;;;4.63;2.47;;;8.60;99.90;;;;;;5032667;28;20197;-67
2022/09/17 07:42:49;;;;;;;5.03;2.10;;;8.60;99.90;;;;;;5032868;28;20196;-68
2022/09/17 07:45:18;;;;;;;4.27;2.07;;;8.60;99.90;;;;;;5032763;28;20225;-69
2022/09/17 07:47:47;;;;;;;5.20;2.63;;;8.60;99.90;;;;;;5032597;28;20196;-69
2022/09/17 07:50:15;;;;;;;3.33;2.60;;;8.60;99.90;;;;;;5032563;28;20192;-69
2022/09/17 07:52:46;;;;;;;5.43;2.30;;;8.60;99.90;;;;;;5032489;28;20205;-67
2022/09/17 07:55:15;;;;;;;7.40;2.93;;;8.70;99.90;;;;;;5032504;28;20580;-68
2022/09/17 07:57:51;;;;;;;5.57;2.50;;;8.70;99.90;;;;;;5032414;28;20216;-67
2022/09/17 08:00:19;;;;;;;5.47;2.50;;;8.70;99.90;;;;;;5032684;28;20207;-67
2022/09/17 08:02:53;;;;;;;4.27;2.50;;;8.70;99.90;;;;;;5032365;28;20195;-67
2022/09/17 08:05:23;;;;;;;6.47;2.67;;;8.80;99.90;;;;;;5032444;28;20212;-67
2022/09/17 08:07:52;;;;;;;4.40;2.50;;;8.80;99.90;;;;;;5032428;28;20203;-67
2022/09/17 08:10:22;;;;;;;6.73;3.00;;;8.80;99.90;;;;;;5032406;28;20203;-67
2022/09/17 08:12:55;;;;;;;5.23;2.80;;;8.80;99.90;;;;;;5032378;28;20189;-68
2022/09/17 08:15:25;;;;;;;6.47;2.80;;;8.90;99.90;;;;;;5032087;28;20220;-67
2022/09/17 08:17:53;;;;;;;7.43;2.90;;;8.90;99.90;;;;;;5032149;28;20225;-70
2022/09/17 08:20:24;;;;;;;6.00;2.93;;;9.00;99.90;;;;;;5032583;28;20215;-67
2022/09/17 08:23:00;;;;;;;5.17;3.00;;;9.00;99.90;;;;;;5032319;28;20193;-67
2022/09/17 08:25:29;;;;;;;5.23;2.80;;;9.00;99.90;;;;;;5032155;28;20710;-68
2022/09/17 08:27:59;;;;;;;7.93;2.90;;;9.00;99.90;;;;;;5032051;28;20204;-66
2022/09/17 08:30:27;;;;;;;5.47;3.10;;;9.10;99.90;;;;;;5032171;28;20204;-67
2022/09/17 08:32:56;;;;;;;7.40;3.27;;;9.20;99.90;;;;;;5032159;28;20204;-67
2022/09/17 08:35:26;;;;;;;8.73;3.30;;;9.20;99.90;;;;;;5031802;28;20591;-68
2022/09/17 08:37:55;;;;;;;9.83;3.40;;;9.20;99.90;;;;;;5031585;28;20232;-66
2022/09/17 08:40:26;;;;;;;8.97;3.00;;;9.20;99.90;;;;;;5032105;28;20207;-66
2022/09/17 08:43:00;;;;;;;8.93;3.03;;;9.30;99.90;;;;;;5032106;28;20196;-67
2022/09/17 08:45:30;;;;;;;9.23;3.27;;;9.30;99.90;;;;;;5032048;28;20714;-67
2022/09/17 08:48:03;;;;;;;7.77;3.03;;;9.40;99.90;;;;;;5031951;28;20200;-65
2022/09/17 08:50:37;;;;;;;8.90;3.20;;;9.40;99.90;;;;;;5035078;28;20208;-66
2022/09/17 08:53:25;;;;;;;11.40;3.47;;;9.40;99.90;;;;;;5035923;28;20192;-66
2022/09/17 08:55:58;;;;;;;5.80;3.00;;;9.50;99.90;;;;;;5035847;28;20193;-66
2022/09/17 08:58:39;;;;;;;9.33;3.17;;;9.50;99.90;;;;;;5035678;28;20566;-67
2022/09/17 09:01:23;;;;;;;7.90;3.47;;;9.50;99.90;;;;;;5035831;28;20562;-71
2022/09/17 09:04:28;;;;;;;12.13;3.50;;;9.50;99.90;;;;;;5035589;28;20216;-67
2022/09/17 09:07:02;;;;;;;7.60;3.33;;;9.60;99.90;;;;;;5030201;28;20226;-67
2022/09/17 09:09:37;;;;;;;9.87;3.00;;;9.80;99.90;;;;;;5035524;28;20191;-67
2022/09/17 09:12:12;;;;;;;10.97;4.00;;;9.80;99.90;;;;;;5035496;28;20192;-67
2022/09/17 09:14:47;;;;;;;8.40;3.13;;;9.80;99.90;;;;;;5035356;28;20216;-66
2022/09/17 09:17:22;;;;;;;9.17;3.33;;;9.90;99.90;;;;;;5035684;28;20188;-67
2022/09/17 09:19:51;;;;;;;11.33;3.63;;;10.00;99.90;;;;;;5035460;28;20721;-66
2022/09/17 09:22:45;;;;;;;9.17;3.80;;;10.00;99.90;;;;;;5035299;28;20694;-67
2022/09/17 09:25:22;;;;;;;7.23;3.20;;;10.00;99.90;;;;;;5035450;28;20220;-68
2022/09/17 09:28:06;;;;;;;9.67;2.83;;;10.00;99.90;;;;;;5035259;28;20195;-66
2022/09/17 09:30:48;;;;;;;7.40;3.10;;;10.10;99.90;;;;;;5034682;28;20204;-66
2022/09/17 09:33:22;;;;;;;13.27;3.17;;;10.20;99.90;;;;;;5035173;28;20554;-66
2022/09/17 09:35:51;;;;;;;10.07;2.90;;;10.20;99.90;;;;;;5035028;28;20192;-66
2022/09/17 09:38:29;;;;;;;9.70;3.37;;;10.20;99.90;;;;;;5035403;28;20232;-66
2022/09/17 09:41:05;;;;;;;10.10;3.13;;;10.20;99.90;;;;;;5035070;28;20539;-67
2022/09/17 09:43:39;;;;;;;9.17;3.33;;;10.30;99.90;;;;;;5034947;28;20726;-66
2022/09/17 09:46:51;;;;;;;10.27;3.73;;;10.40;99.90;;;;;;5034899;28;20259;-68
2022/09/17 09:49:35;;;;;;;7.97;3.27;;;10.50;99.90;;;;;;5034770;28;20208;-68
2022/09/17 09:52:18;;;;;;;13.33;3.57;;;10.70;99.90;;;;;;5034873;28;20629;-67
2022/09/17 09:55:01;;;;;;;8.90;3.47;;;10.90;99.90;;;;;;5034898;28;20568;-66
2022/09/17 09:57:39;;;;;;;11.60;2.73;;;11.00;99.90;;;;;;5034691;28;20188;-67
2022/09/17 10:00:28;;;;;;;6.93;3.00;;;11.00;99.90;;;;;;5034192;28;20223;-66
2022/09/17 10:03:02;;;;;;;7.13;2.40;;;11.00;99.90;;;;;;5034632;28;20192;-66
2022/09/17 10:05:33;;;;;;;7.00;2.80;;;10.90;99.90;;;;;;5034356;28;20216;-66
2022/09/17 10:08:11;;;;;;;8.70;2.67;;;10.80;99.90;;;;;;5034389;28;20668;-66
2022/09/17 10:10:54;;;;;;;6.63;2.90;;;10.80;99.90;;;;;;5034610;28;20196;-68
2022/09/17 10:13:23;;;;;;;6.67;2.70;;;10.80;99.90;;;;;;5033923;28;20207;-67
2022/09/17 10:15:52;;;;;;;7.03;2.90;;;10.80;99.90;;;;;;5034244;28;20193;-66
2022/09/17 10:18:23;;;;;;;7.53;2.70;;;10.90;99.90;;;;;;5034204;28;20196;-67
2022/09/17 10:20:58;;;;;;;11.03;2.80;;;10.80;99.90;;;;;;5034232;28;20188;-67
2022/09/17 10:23:29;;;;;;;8.50;3.13;;;10.80;99.90;;;;;;5034169;28;20189;-66
2022/09/17 10:25:57;;;;;;;9.27;2.67;;;10.80;99.90;;;;;;5034198;28;20196;-67
2022/09/17 10:28:38;;;;;;;4.53;2.77;;;10.90;99.90;;;;;;5034204;28;20563;-67
2022/09/17 10:31:10;;;;;;;8.47;2.80;;;11.00;99.90;;;;;;5034011;28;20660;-67
2022/09/17 10:33:50;;;;;;;7.20;2.80;;;11.00;99.90;;;;;;5033917;28;20779;-67
2022/09/17 10:36:38;;;;;;;11.17;3.33;;;11.00;99.90;;;;;;5034022;28;20657;-67
2022/09/17 10:39:32;;;;;;;7.33;2.83;;;11.00;99.90;;;;;;5034097;28;20208;-67
2022/09/17 10:42:03;;;;;;;8.50;3.20;;;11.00;99.90;;;;;;5033343;28;20208;-68
2022/09/17 10:44:33;;;;;;;10.30;3.77;;;11.00;99.90;;;;;;5033593;28;20220;-67
2022/09/17 10:47:12;;;;;;;6.83;3.50;;;11.00;99.90;;;;;;5033278;28;20208;-66
2022/09/17 10:49:43;;;;;;;8.77;3.13;;;11.00;99.90;;;;;;5033599;28;20667;-67
2022/09/17 10:52:23;;;;;;;7.20;3.13;;;11.00;99.90;;;;;;5033752;28;20530;-67
2022/09/17 10:55:15;;;;;;;9.43;3.42;;;11.30;99.90;;;;;;5033457;28;20216;-67
2022/09/17 10:58:08;;;;;;;9.85;3.53;;;11.70;99.90;;;;;;5033499;28;20544;-67
2022/09/17 11:00:47;;;;;;;6.28;2.90;;;12.10;99.90;;;;;;5033382;28;20219;-66
2022/09/17 11:03:41;;;;;;;9.50;3.00;;;12.50;99.90;;;;;;5033358;28;20188;-68
2022/09/17 11:06:31;;;;;;;10.85;3.00;;;12.70;99.90;;;;;;5033471;28;20644;-66
2022/09/17 11:09:14;;;;;;;9.80;3.00;;;13.00;99.90;;;;;;5032342;28;20255;-67
2022/09/17 11:11:55;;;;;;;8.27;2.85;;;13.00;99.90;;;;;;5032166;28;20668;-66
2022/09/17 11:14:41;;;;;;;6.95;2.80;;;12.90;99.90;;;;;;5033141;28;20216;-67
2022/09/17 11:17:24;;;;;;;9.50;2.92;;;12.80;99.90;;;;;;5033188;28;20648;-67
2022/09/17 11:19:59;;;;;;;9.15;3.40;;;12.60;99.90;;;;;;5033028;28;20216;-65
2022/09/17 11:22:45;;;;;;;6.78;3.38;;;12.60;99.90;;;;;;5033168;28;20188;-67
2022/09/17 11:25:35;;;;;;;6.93;2.97;;;12.60;99.90;;;;;;5032936;28;20558;-67
2022/09/17 11:28:13;;;;;;;5.55;2.90;;;12.40;99.90;;;;;;5032832;28;20204;-67
2022/09/17 11:30:52;;;;;;;9.70;3.40;;;12.10;99.90;;;;;;5032922;28;20185;-67
2022/09/17 11:33:41;;;;;;;5.15;3.03;;;12.00;99.90;;;;;;5032839;28;20180;-67
2022/09/17 11:36:14;;;;;;;6.90;2.88;;;12.10;99.90;;;;;;5032838;28;20192;-66
2022/09/17 11:38:46;;;;;;;9.05;3.40;;;12.50;99.90;;;;;;5032781;28;20747;-67
2022/09/17 11:41:20;;;;;;;8.68;3.72;;;12.80;99.90;;;;;;5032789;28;20205;-67
2022/09/17 11:43:57;;;;;;;6.20;3.35;;;13.00;99.90;;;;;;5032680;28;20228;-66
2022/09/17 11:46:32;;;;;;;8.68;3.53;;;12.90;99.90;;;;;;5032791;28;20199;-67
2022/09/17 11:49:05;;;;;;;6.50;2.00;;;12.70;99.90;;;;;;5032719;28;20192;-66
2022/09/17 11:51:40;;;;;;;4.97;1.90;;;12.40;99.90;;;;;;5032720;28;20555;-66
2022/09/17 11:54:20;;;;;;;2.42;1.38;;;11.80;99.90;;;;;;5032583;28;20235;-67
2022/09/17 11:56:54;;;;;;;3.30;1.27;;;11.30;99.90;;;;;;5032620;28;20188;-67
2022/09/17 11:59:33;;;;;;;3.55;1.30;;;11.20;99.90;;;;;;5032608;28;20188;-67
2022/09/17 12:02:06;;;;;;;3.80;1.50;;;11.20;99.90;;;;;;5032468;28;20192;-67
2022/09/17 12:04:42;;;;;;;1.73;1.35;;;11.40;99.90;;;;;;5032472;28;20216;-66
2022/09/17 12:07:27;;;;;;;2.38;1.25;;;11.70;99.90;;;;;;5032420;28;20180;-68
2022/09/17 12:09:59;;;;;;;3.40;1.60;;;11.90;99.90;;;;;;5032527;28;20203;-66
2022/09/17 12:12:30;;;;;;;4.50;1.70;;;12.20;99.90;;;;;;5032479;28;20191;-66
2022/09/17 12:15:21;;;;;;;3.03;1.60;;;12.60;99.90;;;;;;5032410;28;20212;-67
2022/09/17 12:17:59;;;;;;;6.93;1.83;;;12.90;99.90;;;;;;5032220;28;20213;-65
2022/09/17 12:20:50;;;;;;;5.40;2.05;;;13.20;99.90;;;;;;5032293;28;20209;-67
2022/09/17 12:23:37;;;;;;;3.15;1.55;;;13.60;99.90;;;;;;5033531;28;20185;-66
2022/09/17 12:26:17;;;;;;;5.22;2.20;;;13.80;99.90;;;;;;5035814;28;20219;-66
2022/09/17 12:28:58;;;;;;;5.20;2.00;;;14.00;99.90;;;;;;5036432;28;20184;-66
2022/09/17 12:31:33;;;;;;;4.80;2.00;;;14.30;99.90;;;;;;5036331;28;20195;-66
2022/09/17 12:34:15;;;;;;;4.28;1.88;;;14.30;99.90;;;;;;5036075;28;20231;-66
2022/09/17 12:36:51;;;;;;;4.03;1.63;;;14.20;99.90;;;;;;5036106;28;20180;-66
2022/09/17 12:39:49;;;;;;;3.63;1.73;;;14.30;99.90;;;;;;5035776;28;20208;-65
2022/09/17 12:42:33;;;;;;;5.32;2.00;;;14.40;99.90;;;;;;5036052;28;20216;-66
2022/09/17 12:45:21;;;;;;;3.83;1.80;;;14.60;99.90;;;;;;5036037;28;20224;-68
2022/09/17 12:48:22;;;;;;;4.65;1.70;;;14.40;99.90;;;;;;5036032;28;20185;-67
2022/09/17 12:51:01;;;;;;;5.93;2.15;;;14.20;99.90;;;;;;5035892;28;20195;-68
2022/09/17 12:53:35;;;;;;;5.28;1.80;;;14.00;99.90;;;;;;5035800;28;20193;-67
2022/09/17 12:56:17;;;;;;;5.68;2.05;;;13.80;99.90;;;;;;5035806;28;20193;-67
2022/09/17 12:59:00;;;;;;;5.28;2.33;;;13.80;99.90;;;;;;5035971;28;20640;-67
2022/09/17 13:01:35;;;;;;;8.20;2.35;;;13.60;99.90;;;;;;5036098;28;20211;-67
2022/09/17 13:04:18;;;;;;;6.72;2.20;;;13.60;99.90;;;;;;5035601;28;20676;-67
2022/09/17 13:07:20;;;;;;;6.88;1.98;;;13.70;99.90;;;;;;5035700;28;20184;-67
2022/09/17 13:10:28;;;;;;;5.03;1.98;;;13.80;99.90;;;;;;5035653;28;20193;-67
2022/09/17 13:13:03;;;;;;;4.18;2.10;;;13.90;99.90;;;;;;5018649;28;20212;-67
2022/09/17 13:15:52;;;;;;;3.47;1.92;;;14.10;99.90;;;;;;5035375;28;20234;-67
2022/09/17 13:18:31;;;;;;;4.93;2.10;;;14.20;99.90;;;;;;5035395;28;20188;-67
2022/09/17 13:21:05;;;;;;;6.07;2.00;;;14.10;99.90;;;;;;5035340;28;20219;-65
2022/09/17 13:23:39;;;;;;;6.18;2.00;;;13.80;99.90;;;;;;5035235;28;20220;-66
2022/09/17 13:26:09;;;;;;;6.20;1.90;;;13.70;99.90;;;;;;5035248;28;20583;-67
2022/09/17 13:28:39;;;;;;;5.55;1.88;;;13.60;99.90;;;;;;5035228;28;20679;-68
2022/09/17 13:31:20;;;;;;;7.45;2.55;;;13.50;99.90;;;;;;5033956;28;20191;-67